METAR AND TAF INFORMATION
METAR FOR LIPX
ADDS - METARS form results

(0435 UTC 26 February 2020)
Data provider http://aviationweather.gov/metar/data/
 
METAR text: LIPX 260420Z 21004KT 0050 R04/0150N FG VV004 03/03 Q0998
Conditions at: LIPX (VILLAFRANCA(CV/M, IT) observed 0420 UTC 26 February 2020
Temperature: 3.0°C (37°F)
Dewpoint: 3.0°C (37°F) [RH = 100%]
Pressure (altimeter): 29.47 inches Hg (998.0 mb)
Winds: from the SSW (210 degrees) at 5 MPH (4 knots; 2.1 m/s)
Visibility: 0.03 miles (0.05 km)
Ceiling: indefinite ceiling with vertical visibility of 400 feet AGL
Clouds: obscured sky
Weather: FG  (fog)

METAR text: LIPX 260350Z 25003KT 230V290 0100 R04/0225N FG VV004 03/03 Q0998
Conditions at: LIPX (VILLAFRANCA(CV/M, IT) observed 0350 UTC 26 February 2020
Temperature: 3.0°C (37°F)
Dewpoint: 3.0°C (37°F) [RH = 100%]
Pressure (altimeter): 29.47 inches Hg (998.0 mb)
Winds: from the WSW (250 degrees) at 3 MPH (3 knots; 1.5 m/s)
Visibility: 0.06 miles (0.10 km)
Ceiling: indefinite ceiling with vertical visibility of 400 feet AGL
Clouds: obscured sky
Weather: FG  (fog)

Forecast for: AMD
Text: TAF AMD LIPX 260235Z 2603/2612 VRB05KT 1200 BCFG BKN008
Forecast period: 0300 to 0600 UTC 26 February 2020
Forecast type: FROM: standard forecast or significant change
Winds: variable direction winds at 6 MPH (5 knots; 2.6 m/s)
Visibility: 0.75 miles (1.21 km)
Ceiling: 800 feet AGL
Clouds: broken clouds at 800 feet AGL
Weather: BCFG  (patches of fog)
Text: TEMPO 2602/2606 0050 FG
Forecast period: 0200 to 0600 UTC 26 February 2020
Forecast type: TEMPORARY: The following changes expected for less than half the time period
Visibility: 0.03 miles (0.05 km)
Ceiling: unknown
Clouds: missing
Weather: FG  (fog)
Text: BECMG 2606/2608 27010KT 7000
Forecast period: 0600 to 1200 UTC 26 February 2020
Forecast type: BECOMING: Conditions expected to become as follows by 0800 UTC 26 February 2020
Winds: from the W (270 degrees) at 12 MPH (10 knots; 5.1 m/s)
Visibility: 4 miles (7 km)
Ceiling: 800 feet AGL
Clouds: broken clouds at 800 feet AGL
Weather: BCFG  (patches of fog)

 AIRPORT MAP

 RUNWAY INFORMATION
Runway 04 Runway length 10064 ft Runway width 148 ft
Runway elevation 220 ft Runway displaced threshold 189 ft Runway heading 46
Runway 22 Runway length 10064 ft Runway width 148 ft
Runway elevation 238 ft Runway displaced threshold 1345 ft Runway heading 226

 AIRPORT FREQUENCIES
Type APP Name GARDA APP Frequency 36.23 MHZ
Type APP Name GARDA APP Frequency 124.45 MHZ
Type GND Name GND Frequency 121.75 MHZ
Type INFO Name PADOVA INF Frequency 123.25 MHZ
Type TWR Name TWR Frequency 118.65 MHZ

 AIRPORT NEAR NAVIGATION AIDS
Type VORTAC Name Villafranca Frequency 115800 KHZ
Type NDB Name Villafranca Frequency 355 KHZ



Powered by Virtual Airlines Manager [v2.6.2]